Time;durP1;ratioP1;P1;durP2;ratioP2;P2;SDS_P1;SDS_P2;PMS_P1;PMS_P2;Temp;Humidity;BMP_temperature;BMP_pressure;BME280_temperature;BME280_humidity;BME280_pressure;Samples;Min_cycle;Max_cycle;Signal;HPM_P1;HPM_P2
2023/06/29 00:02:08;;;;;;;8.45;4.60;;;19.00;99.90;;;-144.05;62.88;56891.31;5051999;28;20561;-83
2023/06/29 00:04:34;;;;;;;10.50;4.78;;;19.00;99.90;;;-144.05;62.73;56901.94;5051715;28;20079;-84
2023/06/29 00:07:05;;;;;;;10.00;4.93;;;19.00;99.90;;;-144.05;62.62;56882.81;5033974;28;20029;-83
2023/06/29 00:09:31;;;;;;;8.93;4.95;;;19.00;99.90;;;-144.05;62.09;56870.06;5051710;28;20476;-84
2023/06/29 00:11:57;;;;;;;8.30;4.75;;;19.10;99.90;;;-144.05;61.57;56867.94;5050526;28;20557;-83
2023/06/29 00:14:23;;;;;;;7.07;4.90;;;19.00;99.90;;;-144.05;61.75;56887.06;5051486;28;20037;-83
2023/06/29 00:16:50;;;;;;;9.18;5.15;;;19.10;99.90;;;-144.05;61.89;56891.31;5051387;28;20035;-83
2023/06/29 00:19:17;;;;;;;8.85;4.65;;;19.10;99.90;;;-144.05;61.84;56861.56;5051228;28;20025;-85
2023/06/29 00:21:46;;;;;;;13.10;5.28;;;19.10;99.90;;;-144.05;62.21;56882.81;5051761;28;20090;-83
2023/06/29 00:24:12;;;;;;;9.98;4.88;;;19.10;99.90;;;-144.05;62.12;56889.19;5051435;28;20021;-87
2023/06/29 00:26:41;;;;;;;13.75;5.05;;;19.10;99.90;;;-144.05;62.30;56895.56;5038360;28;20052;-86
2023/06/29 00:29:07;;;;;;;8.40;4.57;;;19.00;99.90;;;-144.05;62.79;56887.06;5031508;28;20075;-85
2023/06/29 00:31:32;;;;;;;7.28;4.82;;;19.10;99.90;;;-144.05;63.44;56874.31;5030394;28;20037;-84
2023/06/29 00:33:58;;;;;;;7.93;4.45;;;19.00;99.90;;;-144.05;63.44;56857.34;5031640;28;20573;-83
2023/06/29 00:36:24;;;;;;;6.90;4.43;;;18.90;99.90;;;-144.05;63.91;56878.56;5031864;28;20396;-84
2023/06/29 00:38:52;;;;;;;7.50;5.03;;;18.90;99.90;;;-144.05;64.53;56893.44;5030125;28;20480;-85
2023/06/29 00:41:21;;;;;;;6.43;4.88;;;18.90;99.90;;;-144.05;64.02;56906.19;5031419;28;20107;-82
2023/06/29 00:43:46;;;;;;;11.95;5.25;;;18.90;99.90;;;-144.05;62.75;56882.81;5014008;28;20021;-82
2023/06/29 00:46:18;;;;;;;11.18;5.43;;;18.90;99.90;;;-144.05;62.35;56882.81;5031306;28;20133;-83
2023/06/29 00:48:47;;;;;;;9.75;4.78;;;18.90;99.90;;;-144.05;61.94;56872.19;5032217;28;20030;-84
2023/06/29 00:51:16;;;;;;;8.63;4.55;;;19.00;99.90;;;-144.05;61.60;56870.06;5017306;28;20037;-83
2023/06/29 00:53:43;;;;;;;9.65;5.10;;;19.00;99.90;;;-144.05;61.57;56899.81;5018075;28;20086;-82
2023/06/29 00:56:09;;;;;;;8.52;5.07;;;19.10;99.90;;;-144.05;61.50;56872.19;5035730;28;20492;-86
2023/06/29 00:58:38;;;;;;;8.98;4.75;;;19.10;99.90;;;-144.05;61.40;56874.31;5035371;28;20061;-85
2023/06/29 01:01:04;;;;;;;8.55;5.03;;;19.10;99.90;;;-144.05;61.11;56878.56;5035423;28;20112;-83
2023/06/29 01:03:36;;;;;;;13.27;4.85;;;19.10;99.90;;;-144.05;60.84;56887.06;5035602;28;20122;-85
2023/06/29 01:06:09;;;;;;;10.35;5.38;;;19.10;99.90;;;-144.05;60.63;56887.06;5034358;28;20037;-85
2023/06/29 01:08:53;;;;;;;9.38;5.20;;;19.10;99.90;;;-144.05;60.89;56904.06;5033915;28;20053;-86
2023/06/29 01:11:21;;;;;;;8.02;5.07;;;19.10;99.90;;;-144.05;60.75;56880.69;5035104;28;20037;-83
2023/06/29 01:13:53;;;;;;;10.55;4.90;;;19.10;99.90;;;-144.05;60.82;56876.44;5018034;28;20116;-81
2023/06/29 01:16:21;;;;;;;11.15;5.43;;;19.10;99.90;;;-144.05;60.97;56893.44;5034875;28;20034;-84
2023/06/29 01:18:51;;;;;;;10.85;5.13;;;19.10;99.90;;;-144.05;61.10;56901.94;5035384;28;20025;-85
2023/06/29 01:21:18;;;;;;;8.73;5.45;;;19.10;99.90;;;-144.05;61.64;56893.44;5018043;28;20065;-84
2023/06/29 01:23:49;;;;;;;11.30;4.93;;;19.10;99.90;;;-144.05;61.69;56891.31;5018040;28;20025;-84
2023/06/29 01:26:15;;;;;;;7.53;5.43;;;19.00;99.90;;;-144.05;61.38;56889.19;5047299;28;20040;-81
2023/06/29 01:28:48;;;;;;;10.73;5.45;;;19.00;99.90;;;-144.05;61.22;56861.56;5055870;28;20139;-84
2023/06/29 01:31:17;;;;;;;7.43;5.10;;;19.00;99.90;;;-144.05;61.16;56887.06;5049068;28;20117;-83
2023/06/29 01:33:44;;;;;;;8.18;5.60;;;19.00;99.90;;;-144.05;61.12;56897.69;5059654;28;20474;-85
2023/06/29 01:36:26;;;;;;;10.02;4.95;;;19.00;99.90;;;-144.05;61.12;56874.31;5057614;28;20037;-86
2023/06/29 01:39:04;;;;;;;7.95;5.05;;;19.00;99.90;;;-144.05;60.79;56916.81;5056848;28;20086;-85
2023/06/29 01:41:40;;;;;;;9.32;4.90;;;19.00;99.90;;;-144.05;60.75;56891.31;5057791;28;20036;-86
2023/06/29 01:44:14;;;;;;;9.65;5.13;;;19.00;99.90;;;-144.05;60.50;56889.19;5055923;28;20029;-85
2023/06/29 01:46:41;;;;;;;9.13;5.07;;;19.00;99.90;;;-144.05;60.40;56895.56;5056930;28;20032;-87
2023/06/29 01:49:07;;;;;;;10.13;4.95;;;19.10;99.90;;;-144.05;60.74;56901.94;5060536;28;20483;-86
2023/06/29 01:51:52;;;;;;;7.57;5.28;;;19.10;99.90;;;-144.05;61.03;56865.81;5064136;28;20519;-84
2023/06/29 01:54:18;;;;;;;11.70;5.15;;;19.00;99.90;;;-144.05;61.48;56908.31;5054578;28;20403;-87
2023/06/29 01:57:21;;;;;;;9.93;5.10;;;19.00;99.90;;;-144.05;61.70;56878.56;5054536;28;20029;-83
2023/06/29 01:59:47;;;;;;;7.93;4.72;;;19.00;99.90;;;-144.05;61.55;56882.81;5053681;28;20064;-84
2023/06/29 02:02:13;;;;;;;10.07;5.10;;;19.00;99.90;;;-144.05;61.37;56893.44;5053375;28;20503;-84
2023/06/29 02:07:24;;;;;;;8.93;5.00;;;18.90;99.90;;;-144.05;61.95;56882.81;5054046;28;20043;-82
2023/06/29 02:09:51;;;;;;;10.40;5.95;;;18.90;99.90;;;-144.05;61.04;56895.56;5052218;28;20025;-83
2023/06/29 02:12:17;;;;;;;14.30;5.78;;;18.90;99.90;;;-144.05;60.79;56889.19;5053417;28;20480;-83
2023/06/29 02:14:43;;;;;;;10.13;5.55;;;18.90;99.90;;;-144.05;60.75;56887.06;5053253;28;20033;-85
2023/06/29 02:17:09;;;;;;;8.27;5.03;;;19.00;99.90;;;-144.05;60.49;56876.44;5053577;28;20476;-85
2023/06/29 02:19:35;;;;;;;8.27;5.28;;;19.00;99.90;;;-144.05;60.98;56891.31;5035677;28;20025;-85
2023/06/29 02:22:01;;;;;;;7.18;4.68;;;19.00;99.90;;;-144.05;62.15;56876.44;5053314;28;20032;-86
2023/06/29 02:24:28;;;;;;;8.20;4.65;;;19.00;99.90;;;-144.05;62.22;56891.31;5038112;28;20025;-86
2023/06/29 02:27:13;;;;;;;8.75;4.85;;;18.90;99.90;;;-144.05;62.35;56893.44;5037933;28;20075;-85
2023/06/29 02:29:39;;;;;;;7.85;4.88;;;18.90;99.90;;;-144.05;62.18;56891.31;5016091;28;20040;-84
2023/06/29 02:32:06;;;;;;;7.55;4.53;;;18.90;99.90;;;-144.05;62.16;56889.19;5033848;28;20057;-83
2023/06/29 02:34:32;;;;;;;9.27;4.68;;;18.80;99.90;;;-144.05;62.36;56876.44;5033741;28;20088;-82
2023/06/29 02:36:58;;;;;;;6.78;4.63;;;18.80;99.90;;;-144.05;62.73;56867.94;5016010;28;20033;-82
2023/06/29 02:39:24;;;;;;;8.63;5.03;;;18.70;99.90;;;-144.05;63.40;56889.19;5015610;28;20032;-81
2023/06/29 02:41:49;;;;;;;6.57;4.85;;;18.70;99.90;;;-144.05;63.84;56887.06;5015433;28;20036;-82
2023/06/29 02:44:15;;;;;;;10.55;5.00;;;18.60;99.90;;;-144.05;64.09;56887.06;5015355;28;20391;-80
2023/06/29 02:46:41;;;;;;;6.13;4.32;;;18.60;99.90;;;-144.05;63.74;56872.19;5033454;28;20456;-84
2023/06/29 02:49:07;;;;;;;11.95;5.60;;;18.60;99.90;;;-144.05;63.08;56874.31;5031675;28;20029;-83
2023/06/29 02:51:33;;;;;;;10.60;5.60;;;18.70;99.90;;;-144.05;61.89;56870.06;5014875;28;20068;-83
2023/06/29 02:53:59;;;;;;;10.20;5.45;;;18.80;99.90;;;-144.05;61.48;56897.69;5034671;28;20105;-82
2023/06/29 02:56:25;;;;;;;8.40;5.15;;;18.80;99.90;;;-144.05;62.12;56880.69;5032555;28;20056;-84
2023/06/29 02:58:51;;;;;;;11.63;5.72;;;18.90;99.90;;;-144.05;62.66;56867.94;5015361;28;20484;-82
2023/06/29 03:01:16;;;;;;;6.78;4.95;;;18.90;99.90;;;-144.05;62.62;56912.56;5032124;28;20442;-86
2023/06/29 03:03:42;;;;;;;8.07;5.00;;;18.80;99.90;;;-144.05;63.26;56857.34;5032797;28;20496;-84
2023/06/29 03:06:08;;;;;;;11.75;6.32;;;18.80;99.90;;;-144.05;63.55;56887.06;5032781;28;20087;-81
2023/06/29 03:08:34;;;;;;;10.63;5.90;;;18.70;99.90;;;-144.05;63.50;56874.31;5032336;28;20034;-83
2023/06/29 03:11:00;;;;;;;11.88;5.03;;;18.70;99.90;;;-144.05;63.46;56865.81;5015519;28;20117;-85
2023/06/29 03:13:26;;;;;;;11.43;5.47;;;18.70;99.90;;;-144.05;63.61;56882.81;5030406;28;20112;-85
2023/06/29 03:15:56;;;;;;;7.10;4.53;;;18.70;99.90;;;-144.05;63.76;56895.56;5031172;28;20531;-85
2023/06/29 03:18:22;;;;;;;9.93;5.45;;;18.70;99.90;;;-144.05;64.03;56878.56;5031302;28;20112;-84
2023/06/29 03:20:48;;;;;;;7.57;4.63;;;18.60;99.90;;;-144.05;64.16;56876.44;5033004;28;20057;-83
2023/06/29 03:23:13;;;;;;;9.18;5.28;;;18.60;99.90;;;-144.05;64.30;56880.69;5015228;28;20032;-84
2023/06/29 03:25:39;;;;;;;6.82;4.28;;;18.60;99.90;;;-144.05;64.53;56876.44;5019800;28;20029;-84
2023/06/29 03:28:05;;;;;;;7.25;4.82;;;18.60;99.90;;;-144.05;64.92;56895.56;5054143;28;20036;-84
2023/06/29 03:30:31;;;;;;;8.77;5.10;;;18.60;99.90;;;-144.05;65.14;56897.69;5053207;28;20483;-84
2023/06/29 03:33:34;;;;;;;10.43;5.72;;;18.50;99.90;;;-144.05;65.26;56874.31;5053079;28;20040;-82
2023/06/29 03:36:37;;;;;;;5.82;4.45;;;18.60;99.90;;;-144.05;65.37;56884.94;5052751;28;20036;-83
2023/06/29 03:39:03;;;;;;;6.03;4.55;;;18.50;99.90;;;-144.05;65.64;56887.06;5051871;28;20047;-82
2023/06/29 03:41:29;;;;;;;8.48;5.07;;;18.50;99.90;;;-144.05;65.76;56884.94;5053072;28;20029;-83
2023/06/29 03:43:55;;;;;;;10.65;5.28;;;18.50;99.90;;;-144.05;65.75;56897.69;5052779;28;20025;-80
2023/06/29 03:46:22;;;;;;;9.13;5.50;;;18.50;99.90;;;-144.05;65.40;56874.31;5051589;28;20063;-81
2023/06/29 03:48:47;;;;;;;9.63;5.60;;;18.50;99.90;;;-144.05;65.22;56895.56;5052173;28;20086;-83
2023/06/29 03:51:14;;;;;;;11.80;6.30;;;18.60;99.90;;;-144.05;65.06;56889.19;5051055;28;20021;-83
2023/06/29 03:53:39;;;;;;;10.50;5.32;;;18.60;99.90;;;-144.05;64.99;56897.69;5051006;28;20021;-84
2023/06/29 03:56:05;;;;;;;8.15;5.30;;;18.70;99.90;;;-144.05;64.94;56872.19;5052121;28;20116;-82
2023/06/29 03:58:31;;;;;;;9.05;5.13;;;18.70;99.90;;;-144.05;64.69;56904.06;5052336;28;20111;-81
2023/06/29 04:00:57;;;;;;;9.65;4.82;;;18.70;99.90;;;-144.05;64.61;56895.56;5052723;28;20036;-83
2023/06/29 04:03:23;;;;;;;7.78;5.05;;;18.80;99.90;;;-144.05;64.62;56884.94;5051610;28;20025;-82
2023/06/29 04:05:49;;;;;;;11.10;4.95;;;18.90;99.90;;;-144.05;64.17;56904.06;5050428;28;20033;-83
2023/06/29 04:08:14;;;;;;;13.88;5.72;;;18.90;99.90;;;-144.05;64.11;56908.31;5051323;28;20056;-81
2023/06/29 04:10:40;;;;;;;13.70;5.63;;;19.00;99.90;;;-144.05;63.67;56874.31;5033537;28;20372;-82
2023/06/29 04:13:06;;;;;;;10.85;6.18;;;19.00;99.90;;;-144.05;62.27;56893.44;5033508;28;20100;-81
2023/06/29 04:15:32;;;;;;;13.52;6.18;;;19.10;99.90;;;-144.05;62.01;56878.56;5033427;28;20126;-82
2023/06/29 04:17:58;;;;;;;10.23;5.88;;;19.20;99.90;;;-144.05;61.67;56901.94;5050139;28;20025;-80
2023/06/29 04:20:24;;;;;;;11.45;6.10;;;19.20;99.90;;;-144.05;62.05;56889.19;5055988;28;20036;-83
2023/06/29 04:22:50;;;;;;;10.35;5.97;;;19.30;99.90;;;-144.05;61.60;56870.06;5043662;28;20025;-84
2023/06/29 04:25:16;;;;;;;10.73;5.93;;;19.30;99.90;;;-144.05;61.58;56929.53;5062244;28;20108;-81
2023/06/29 04:27:42;;;;;;;10.52;5.85;;;19.30;99.90;;;-144.05;61.40;56884.94;5045867;28;20089;-80
2023/06/29 04:30:11;;;;;;;11.48;6.05;;;19.40;99.90;;;-144.05;61.62;56887.06;5040896;28;20025;-82
2023/06/29 04:32:37;;;;;;;7.72;4.60;;;19.40;99.90;;;-144.05;61.54;56878.56;5068280;22;20045;-81
2023/06/29 04:35:03;;;;;;;8.52;4.88;;;19.40;99.90;;;-144.05;61.59;56887.06;5064722;28;20445;-83
2023/06/29 04:37:40;;;;;;;15.57;5.55;;;19.40;99.90;;;-144.05;61.47;56872.19;5077751;28;20024;-82
2023/06/29 04:40:12;;;;;;;7.93;4.90;;;19.40;99.90;;;-144.05;61.33;56901.94;5081112;28;20037;-76
2023/06/29 04:42:45;;;;;;;8.13;5.05;;;19.40;99.90;;;-144.05;61.50;56906.19;5082469;28;20036;-78
2023/06/29 04:45:13;;;;;;;7.28;4.82;;;19.40;99.90;;;-144.05;61.74;56878.56;5099614;28;20059;-80
2023/06/29 04:47:40;;;;;;;10.07;4.63;;;19.40;99.90;;;-144.05;61.92;56882.81;5097230;28;20104;-79
2023/06/29 04:50:08;;;;;;;9.07;5.40;;;19.40;99.90;;;-144.05;61.94;56897.69;5097293;28;20052;-81
2023/06/29 04:52:36;;;;;;;7.43;4.82;;;19.40;99.90;;;-144.05;62.09;56895.56;5097936;28;20043;-82
2023/06/29 04:55:04;;;;;;;8.30;4.40;;;19.50;99.90;;;-144.05;61.82;56916.81;5076111;28;20098;-81
2023/06/29 04:57:30;;;;;;;7.25;4.55;;;19.60;99.90;;;-144.05;61.75;56870.06;5075638;28;20039;-82
2023/06/29 04:59:57;;;;;;;6.90;4.53;;;19.60;99.90;;;-144.05;61.72;56897.69;5075398;28;20024;-85
2023/06/29 05:02:23;;;;;;;9.35;4.70;;;19.60;99.90;;;-144.05;61.82;56904.06;5075834;28;20025;-84
2023/06/29 05:04:49;;;;;;;6.60;4.93;;;19.70;99.90;;;-144.05;61.74;56899.81;5078040;28;20029;-84
2023/06/29 05:07:16;;;;;;;8.57;5.30;;;19.60;99.90;;;-144.05;61.23;56895.56;5078265;28;20086;-82
2023/06/29 05:09:42;;;;;;;9.77;5.60;;;19.70;99.90;;;-144.05;60.43;56889.19;5078230;28;20024;-83
2023/06/29 05:12:09;;;;;;;6.95;5.15;;;19.70;99.90;;;-144.05;60.11;56895.56;5079441;28;20336;-82
2023/06/29 05:14:35;;;;;;;11.57;5.85;;;19.70;99.90;;;-144.05;59.99;56908.31;5079283;28;20035;-84
2023/06/29 05:17:01;;;;;;;12.63;6.53;;;19.80;99.90;;;-144.05;59.56;56906.19;5080630;28;20037;-85
2023/06/29 05:19:27;;;;;;;8.68;5.40;;;19.80;99.90;;;-144.05;59.34;56908.31;5066341;28;20032;-84
2023/06/29 05:21:53;;;;;;;9.75;5.80;;;19.90;99.90;;;-144.05;58.67;56893.44;5084136;28;20028;-83
2023/06/29 05:24:20;;;;;;;10.75;5.35;;;19.90;99.90;;;-144.05;58.90;56904.06;5084739;28;20027;-83
2023/06/29 05:26:46;;;;;;;7.00;4.82;;;19.90;99.90;;;-144.05;58.88;56912.56;5083330;28;20086;-83
2023/06/29 05:29:12;;;;;;;8.55;4.95;;;20.00;99.90;;;-144.05;58.97;56925.28;5083967;28;20490;-82
2023/06/29 05:31:38;;;;;;;9.57;5.50;;;20.00;99.90;;;-144.05;58.54;56921.06;5084310;28;20025;-81
2023/06/29 05:34:04;;;;;;;10.63;5.55;;;20.00;99.90;;;-144.05;58.29;56912.56;5085482;28;20044;-81
2023/06/29 05:36:29;;;;;;;10.25;5.65;;;20.00;99.90;;;-144.05;58.07;56908.31;5084255;28;20039;-89
2023/06/29 05:38:55;;;;;;;9.90;5.55;;;20.00;99.90;;;-144.05;57.98;56891.31;5085588;28;20468;-84
2023/06/29 05:41:21;;;;;;;8.10;5.15;;;20.00;99.90;;;-144.05;57.88;56901.94;5085182;28;20039;-84
2023/06/29 05:43:47;;;;;;;11.32;5.55;;;20.10;99.90;;;-144.05;57.80;56895.56;5067178;28;20448;-85
2023/06/29 05:46:13;;;;;;;14.70;5.72;;;20.10;99.90;;;-144.05;58.00;56876.44;5067033;28;20078;-86
2023/06/29 05:48:39;;;;;;;10.18;6.55;;;20.10;99.90;;;-144.05;57.59;56914.69;5083394;28;20032;-83
2023/06/29 05:51:04;;;;;;;8.20;5.28;;;20.10;99.90;;;-144.05;57.64;56908.31;5067405;28;20051;-83
2023/06/29 05:53:32;;;;;;;9.55;5.50;;;20.20;99.90;;;-144.05;57.15;56889.19;5085084;28;20040;-83
2023/06/29 05:55:58;;;;;;;9.05;4.50;;;20.20;99.90;;;-144.05;56.72;56918.94;5086067;28;20025;-82
2023/06/29 05:58:24;;;;;;;9.32;5.28;;;20.30;99.90;;;-144.05;56.67;56908.31;5086019;28;20089;-83
2023/06/29 06:00:51;;;;;;;10.55;5.55;;;20.40;99.90;;;-144.05;55.87;56891.31;5067958;28;20024;-84
2023/06/29 06:03:18;;;;;;;7.78;4.90;;;20.50;99.90;;;-144.05;55.83;56918.94;5067411;28;20029;-84
2023/06/29 06:05:44;;;;;;;10.60;5.07;;;20.60;99.90;;;-144.05;55.11;56910.44;5085739;28;20029;-85
2023/06/29 06:08:10;;;;;;;12.80;5.40;;;20.70;99.90;;;-144.05;54.97;56916.81;5086664;28;20040;-83
2023/06/29 06:10:35;;;;;;;7.75;4.15;;;20.80;99.90;;;-144.05;54.59;56916.81;5085602;28;20043;-84
2023/06/29 06:13:02;;;;;;;9.57;5.03;;;21.00;99.90;;;-144.05;54.56;56916.81;5068246;28;20462;-83
2023/06/29 06:15:28;;;;;;;9.27;4.93;;;21.10;99.90;;;-144.05;54.17;56929.53;5085566;28;20371;-84
2023/06/29 06:17:54;;;;;;;8.02;4.38;;;21.20;99.90;;;-144.05;53.87;56944.41;5087086;28;20080;-84
2023/06/29 06:20:20;;;;;;;8.10;5.03;;;21.30;99.90;;;-144.05;53.83;56921.06;5086356;28;20024;-85
2023/06/29 06:22:46;;;;;;;10.55;5.38;;;21.30;99.90;;;-144.05;53.88;56933.78;5069222;28;20036;-82
2023/06/29 06:25:14;;;;;;;10.85;5.50;;;21.30;99.90;;;-144.05;53.91;56925.28;5068234;28;20095;-83
2023/06/29 06:27:41;;;;;;;10.43;4.97;;;21.30;99.90;;;-144.05;54.23;56929.53;5066728;28;20033;-84
2023/06/29 06:30:08;;;;;;;8.75;4.70;;;21.40;99.90;;;-144.05;54.30;56910.44;5066758;28;20060;-80
2023/06/29 06:32:34;;;;;;;10.27;4.47;;;21.50;99.90;;;-144.05;54.07;56931.66;5066596;28;20047;-82
2023/06/29 06:35:00;;;;;;;8.18;4.00;;;21.60;99.90;;;-144.05;54.19;56948.66;5067785;28;20033;-85
2023/06/29 06:37:26;;;;;;;8.65;4.50;;;21.60;99.90;;;-144.05;54.07;56912.56;5066078;28;20028;-83
2023/06/29 06:39:51;;;;;;;12.02;5.40;;;21.60;99.90;;;-144.05;53.67;56931.66;5067526;28;20021;-81
2023/06/29 06:42:17;;;;;;;15.10;4.90;;;21.70;99.90;;;-144.05;53.72;56925.28;5067340;28;20077;-84
2023/06/29 06:44:57;;;;;;;10.55;4.22;;;21.60;99.90;;;-144.05;53.97;56940.16;5056747;28;20047;-81
2023/06/29 06:47:23;;;;;;;10.35;4.50;;;21.60;99.90;;;-144.05;54.41;56929.53;5075447;28;20025;-79
2023/06/29 06:49:49;;;;;;;6.88;4.00;;;21.60;99.90;;;-144.05;54.56;56935.91;5074774;28;20029;-81
2023/06/29 06:52:15;;;;;;;10.30;4.60;;;21.60;99.90;;;-144.05;54.68;56933.78;5071823;28;20032;-84
2023/06/29 06:54:41;;;;;;;7.05;3.95;;;21.70;99.90;;;-144.05;54.58;56927.41;5047654;28;20086;-83
2023/06/29 06:57:06;;;;;;;8.52;4.90;;;21.70;99.90;;;-144.05;54.03;56912.56;5065342;28;20033;-84
2023/06/29 06:59:32;;;;;;;11.73;4.78;;;21.70;99.90;;;-144.05;53.95;56938.03;5065276;28;20113;-84
2023/06/29 07:01:58;;;;;;;7.80;4.22;;;21.70;99.90;;;-144.05;53.88;56933.78;5063635;28;20036;-83
2023/06/29 07:04:24;;;;;;;7.88;4.60;;;21.70;99.90;;;-144.05;54.04;56950.78;5046480;28;20020;-83
2023/06/29 07:06:50;;;;;;;7.40;4.55;;;21.70;99.90;;;-144.05;54.03;56910.44;5064862;28;20033;-83
2023/06/29 07:09:16;;;;;;;7.00;4.25;;;21.80;99.90;;;-144.05;54.08;56904.06;5065202;28;20032;-84
2023/06/29 07:11:42;;;;;;;8.90;4.50;;;21.70;99.90;;;-144.05;53.81;56925.28;5064996;28;20029;-87
2023/06/29 07:14:07;;;;;;;7.38;4.43;;;21.80;99.90;;;-144.05;53.82;56925.28;5064806;28;20036;-85
2023/06/29 07:16:33;;;;;;;8.43;4.30;;;21.80;99.90;;;-144.05;53.78;56950.78;5062085;28;20029;-83
2023/06/29 07:19:14;;;;;;;5.95;4.18;;;21.90;99.90;;;-144.05;54.00;56929.53;5064342;28;20029;-81
2023/06/29 07:21:41;;;;;;;10.23;4.32;;;21.90;99.90;;;-144.05;54.03;56948.66;5046785;28;20057;-83
2023/06/29 07:24:09;;;;;;;7.63;4.18;;;21.90;99.90;;;-144.05;53.64;56959.28;5064251;28;20026;-83
2023/06/29 07:26:37;;;;;;;9.05;4.07;;;22.00;99.90;;;-144.05;53.28;56921.06;5077800;28;20040;-82
2023/06/29 07:29:07;;;;;;;7.82;4.15;;;22.20;99.90;;;-144.05;51.75;56927.41;5085548;28;20031;-86
2023/06/29 07:31:34;;;;;;;9.18;4.18;;;22.60;99.90;;;-144.05;50.90;56967.78;5085669;28;20455;-84
2023/06/29 07:34:00;;;;;;;8.95;4.43;;;23.00;99.90;;;-144.05;50.08;56967.78;5085174;28;20033;-83
2023/06/29 07:36:27;;;;;;;7.57;4.30;;;23.30;99.90;;;-144.05;49.86;56976.28;5085178;28;20104;-83
2023/06/29 07:38:55;;;;;;;7.90;3.78;;;23.30;99.90;;;-144.05;49.54;56969.91;5085744;28;20021;-84
2023/06/29 07:41:22;;;;;;;12.32;4.28;;;23.40;99.90;;;-144.05;48.97;56972.03;5067955;28;20033;-82
2023/06/29 07:43:57;;;;;;;7.05;3.88;;;23.30;99.90;;;-144.05;49.40;56961.41;5085755;28;20074;-83
2023/06/29 07:46:24;;;;;;;5.95;3.58;;;23.20;99.90;;;-144.05;49.48;56980.53;5084871;28;20055;-84
2023/06/29 07:48:51;;;;;;;9.00;4.07;;;23.10;99.90;;;-144.05;48.85;56972.03;5084757;28;20032;-80
2023/06/29 07:51:18;;;;;;;9.02;3.92;;;23.00;99.90;;;-144.05;50.15;56950.78;5084402;28;20028;-85
2023/06/29 07:53:44;;;;;;;14.38;4.13;;;22.80;99.90;;;-144.05;50.74;56963.53;5065733;28;20028;-82
2023/06/29 07:56:10;;;;;;;8.70;4.10;;;22.80;99.90;;;-144.05;50.37;56929.53;5085076;28;20028;-81
2023/06/29 07:58:36;;;;;;;6.18;3.75;;;22.80;99.90;;;-144.05;49.57;56963.53;5066632;28;20029;-85
2023/06/29 08:01:02;;;;;;;7.45;3.55;;;23.00;99.90;;;-144.05;49.66;56942.28;5067930;28;20394;-80
2023/06/29 08:03:28;;;;;;;4.90;3.28;;;23.00;99.90;;;-144.05;49.47;56950.78;5085626;28;20031;-81
2023/06/29 08:05:56;;;;;;;5.60;3.65;;;23.10;99.90;;;-144.05;49.00;56948.66;5085029;28;20052;-84
2023/06/29 08:08:22;;;;;;;10.15;3.95;;;23.00;99.90;;;-144.05;49.39;56938.03;5084494;28;20031;-82
2023/06/29 08:10:48;;;;;;;5.82;3.85;;;23.10;99.90;;;-144.05;49.21;56946.53;5066458;28;20033;-83
2023/06/29 08:13:16;;;;;;;7.28;3.65;;;23.10;99.90;;;-144.05;48.42;56950.78;5085234;28;20029;-83
2023/06/29 08:15:42;;;;;;;6.13;3.78;;;23.20;99.90;;;-144.05;49.01;56969.91;5083725;28;20115;-86
2023/06/29 08:18:08;;;;;;;6.70;4.00;;;23.30;99.90;;;-144.05;48.85;56961.41;5067125;28;20487;-84
2023/06/29 08:20:34;;;;;;;6.93;4.03;;;23.40;99.90;;;-144.05;48.36;56978.41;5065812;28;20036;-84
2023/06/29 08:23:00;;;;;;;8.15;3.67;;;23.50;99.90;;;-144.05;48.80;56984.78;5084143;28;20127;-84
2023/06/29 08:25:26;;;;;;;8.27;3.28;;;23.60;99.90;;;-144.05;48.08;56972.03;5081180;28;20029;-84
2023/06/29 08:27:51;;;;;;;11.65;4.70;;;23.50;99.90;;;-144.05;47.62;56963.53;5065229;28;20503;-83
2023/06/29 08:30:17;;;;;;;7.70;4.35;;;23.40;99.90;;;-144.05;48.85;56948.66;5062880;28;20037;-83
2023/06/29 08:32:43;;;;;;;7.45;3.45;;;23.30;99.90;;;-144.05;49.25;56991.13;5063089;28;20078;-83
2023/06/29 08:35:10;;;;;;;7.72;3.70;;;23.20;99.90;;;-144.05;49.23;56955.03;5046741;28;20036;-83
2023/06/29 08:37:36;;;;;;;9.98;4.15;;;23.20;99.90;;;-144.05;49.18;56969.91;5064537;28;20032;-85
2023/06/29 08:40:04;;;;;;;7.47;3.83;;;23.30;99.90;;;-144.05;48.92;56959.28;5045857;28;20033;-82
2023/06/29 08:42:31;;;;;;;5.97;3.28;;;23.40;99.90;;;-144.05;48.80;56984.78;5060789;28;20048;-85
2023/06/29 08:44:56;;;;;;;7.35;3.63;;;23.50;99.90;;;-144.05;48.99;56965.66;5042800;28;20108;-83
2023/06/29 08:47:25;;;;;;;8.43;3.78;;;23.50;99.90;;;-144.05;48.85;56972.03;5059664;28;20033;-86
2023/06/29 08:49:57;;;;;;;6.95;3.83;;;23.50;99.90;;;-144.05;49.16;57006.00;5060470;28;20446;-84
2023/06/29 08:52:28;;;;;;;5.53;3.63;;;23.60;99.90;;;-144.05;49.02;56989.00;5060906;28;20059;-84
2023/06/29 08:54:57;;;;;;;7.32;3.85;;;23.60;99.90;;;-144.05;48.53;56989.00;5061657;28;20032;-84
2023/06/29 08:57:24;;;;;;;7.40;3.60;;;23.60;99.90;;;-144.05;48.06;56982.66;5059647;28;20049;-82
2023/06/29 08:59:51;;;;;;;6.78;3.80;;;23.60;99.90;;;-144.05;49.82;56957.16;5060880;28;20090;-82
2023/06/29 09:02:18;;;;;;;6.57;3.60;;;23.50;99.90;;;-144.05;49.45;56997.50;5061398;28;20017;-83
2023/06/29 09:04:44;;;;;;;6.72;3.40;;;23.60;99.90;;;-144.05;48.26;56961.41;5061541;28;20021;-84
2023/06/29 09:07:12;;;;;;;7.85;3.35;;;23.50;99.90;;;-144.05;48.98;56948.66;5062035;28;20021;-83
2023/06/29 09:09:38;;;;;;;6.38;2.85;;;23.50;99.90;;;-144.05;49.43;56974.16;5061560;28;20091;-82
2023/06/29 09:12:04;;;;;;;7.03;3.50;;;23.50;99.90;;;-144.05;49.23;56967.78;5065258;28;20041;-83
2023/06/29 09:14:35;;;;;;;6.07;3.22;;;23.60;99.90;;;-144.05;48.51;56982.66;5066815;28;20036;-84
2023/06/29 09:17:01;;;;;;;7.53;3.00;;;23.60;99.90;;;-144.05;48.45;56959.28;5049322;28;20082;-83
2023/06/29 09:19:29;;;;;;;8.23;3.50;;;23.70;99.90;;;-144.05;48.68;56978.41;5066867;28;20025;-82
2023/06/29 09:21:57;;;;;;;6.38;3.22;;;23.70;99.90;;;-144.05;48.23;56978.41;5048932;28;20027;-84
2023/06/29 09:24:29;;;;;;;5.38;3.30;;;23.70;99.90;;;-144.05;47.91;56978.41;5047400;28;20031;-85
2023/06/29 09:26:55;;;;;;;5.70;2.95;;;23.80;99.90;;;-144.05;47.54;56972.03;5080919;28;20032;-86
2023/06/29 09:29:23;;;;;;;6.68;3.20;;;23.90;99.90;;;-144.05;47.10;56976.28;5086667;28;20043;-81
2023/06/29 09:31:59;;;;;;;5.18;2.97;;;23.80;99.90;;;-144.05;47.45;56989.00;5087703;28;20036;-84
2023/06/29 09:34:27;;;;;;;9.98;3.17;;;23.90;99.90;;;-144.05;46.83;56969.91;5069313;28;20040;-81
2023/06/29 09:36:55;;;;;;;4.72;2.65;;;23.90;99.90;;;-144.05;47.74;56969.91;5087115;28;20048;-81
2023/06/29 09:39:21;;;;;;;7.63;3.80;;;23.90;99.90;;;-144.05;47.64;56969.91;5087089;28;20020;-84
2023/06/29 09:41:58;;;;;;;5.45;2.80;;;23.80;99.90;;;-144.05;47.22;56980.53;5088052;28;20023;-86
2023/06/29 09:44:26;;;;;;;7.43;2.92;;;23.80;99.90;;;-144.05;47.09;56978.41;5086501;28;20340;-83
2023/06/29 09:47:05;;;;;;;7.85;3.33;;;23.90;99.90;;;-144.05;46.66;56963.53;5087132;28;20032;-82
2023/06/29 09:49:48;;;;;;;7.93;3.40;;;24.10;99.90;;;-144.05;45.86;56982.66;5087212;28;20029;-82
2023/06/29 09:52:19;;;;;;;6.55;3.35;;;24.30;99.90;;;-144.05;45.45;57001.75;5086299;28;20084;-84
2023/06/29 09:54:45;;;;;;;9.32;3.00;;;24.60;99.90;;;-144.05;45.25;56995.38;5068420;28;20038;-85
2023/06/29 09:57:11;;;;;;;9.18;3.35;;;24.90;99.90;;;-144.05;45.48;56984.78;5086798;28;20036;-85
2023/06/29 09:59:45;;;;;;;5.13;3.13;;;24.80;99.90;;;-144.05;44.58;57014.50;5071237;28;20040;-85
2023/06/29 10:02:13;;;;;;;7.88;3.85;;;24.90;99.90;;;-144.05;44.95;56999.63;5089379;28;20028;-80
2023/06/29 10:04:42;;;;;;;7.35;3.13;;;24.90;99.90;;;-144.05;44.75;57003.88;5069303;28;20025;-84
2023/06/29 10:07:19;;;;;;;10.82;3.63;;;24.90;99.90;;;-144.05;45.23;57006.00;5087149;28;20129;-79
2023/06/29 10:09:49;;;;;;;7.03;3.80;;;24.80;99.90;;;-144.05;44.63;57014.50;5088116;28;20032;-83
2023/06/29 10:12:18;;;;;;;6.72;3.80;;;25.00;99.90;;;-144.05;43.77;56993.25;5084102;28;20024;-84